Time;durP1;ratioP1;P1;durP2;ratioP2;P2;SDS_P1;SDS_P2;PMS_P1;PMS_P2;Temp;Humidity;BMP_temperature;BMP_pressure;BME280_temperature;BME280_humidity;BME280_pressure;Samples;Min_cycle;Max_cycle;Signal;HPM_P1;HPM_P2
2023/04/29 00:00:26;;;;;;;52.03;47.40;;;;;;;20.88;32.69;95086.34;5915576;29;109025;-60
2023/04/29 00:03:31;;;;;;;52.20;47.60;;;;;;;20.86;32.87;95094.63;5929475;23;109034;-59
2023/04/29 00:06:34;;;;;;;52.47;47.87;;;;;;;20.88;33.05;95092.44;5925497;29;108875;-59
2023/04/29 00:09:37;;;;;;;53.30;48.50;;;;;;;20.86;33.13;95089.31;5926402;29;109019;-59
2023/04/29 00:12:41;;;;;;;50.60;46.20;;;;;;;20.87;32.99;95082.13;5927810;29;108868;-59
2023/04/29 00:15:45;;;;;;;52.37;47.87;;;;;;;20.86;33.10;95086.66;5927423;29;108911;-59
2023/04/29 00:18:48;;;;;;;49.03;44.90;;;;;;;20.87;32.73;95095.41;5914673;29;109019;-60
2023/04/29 00:21:53;;;;;;;52.33;47.73;;;;;;;20.85;32.95;95101.03;5927581;29;109097;-60
2023/04/29 00:24:56;;;;;;;51.47;47.00;;;;;;;20.85;32.99;95102.91;5924006;29;109075;-59
2023/04/29 00:28:00;;;;;;;50.20;45.80;;;;;;;20.84;33.01;95099.44;5927840;29;109058;-59
2023/04/29 00:31:05;;;;;;;52.00;47.30;;;;;;;20.81;33.19;95105.34;5920677;29;108966;-59
2023/04/29 00:34:08;;;;;;;52.03;47.33;;;;;;;20.83;32.90;95105.03;5950074;29;108899;-60
2023/04/29 00:37:11;;;;;;;50.83;46.37;;;;;;;20.82;32.95;95112.22;5944917;29;109186;-59
2023/04/29 00:40:15;;;;;;;50.90;46.50;;;;;;;20.81;32.89;95108.00;5930428;29;109031;-59
2023/04/29 00:43:18;;;;;;;50.30;45.80;;;;;;;20.82;33.20;95112.22;5920328;29;108996;-59
2023/04/29 00:46:22;;;;;;;49.70;45.50;;;;;;;20.82;32.75;95106.91;5939001;29;108948;-59
2023/04/29 00:49:26;;;;;;;49.50;45.10;;;;;;;20.81;32.86;95102.69;5926448;29;109015;-59
2023/04/29 00:52:31;;;;;;;49.13;44.87;;;;;;;20.80;32.97;95100.31;5926702;29;109734;-59
2023/04/29 00:55:35;;;;;;;47.10;42.93;;;;;;;20.80;33.05;95093.13;5925421;29;108951;-59
2023/04/29 00:58:38;;;;;;;47.23;43.13;;;;;;;20.81;32.82;95091.25;5938290;29;109089;-59
2023/04/29 01:01:43;;;;;;;46.30;42.33;;;;;;;20.79;33.00;95078.25;5932646;29;108975;-59
2023/04/29 01:04:46;;;;;;;47.97;43.67;;;;;;;20.78;32.92;95075.91;5923973;29;109174;-59
2023/04/29 01:08:04;;;;;;;45.13;41.20;;;;;;;20.78;32.98;95067.91;5925422;29;108949;-59
2023/04/29 01:11:09;;;;;;;45.80;41.63;;;;;;;20.78;32.91;95060.72;5923248;29;108980;-59
2023/04/29 01:14:13;;;;;;;43.40;39.60;;;;;;;20.76;32.98;95067.44;5922507;29;110076;-59
2023/04/29 01:17:23;;;;;;;45.20;41.17;;;;;;;20.77;32.79;95069.78;5922339;29;109248;-59
2023/04/29 01:20:28;;;;;;;42.20;38.57;;;;;;;20.76;32.95;95070.88;5920308;29;109173;-59
2023/04/29 01:23:32;;;;;;;42.97;39.13;;;;;;;20.76;32.85;95067.44;5917762;29;108910;-65
2023/04/29 01:26:36;;;;;;;44.70;40.70;;;;;;;20.76;32.87;95065.56;5916611;29;108937;-65
2023/04/29 01:29:45;;;;;;;43.90;40.00;;;;;;;20.75;32.75;95060.53;5909159;29;109013;-65
2023/04/29 01:32:58;;;;;;;44.33;40.50;;;;;;;20.75;32.89;95056.00;5928992;29;109006;-66
2023/04/29 01:36:14;;;;;;;44.73;40.83;;;;;;;20.74;32.64;95056.31;5921661;29;108995;-65
2023/04/29 01:39:30;;;;;;;43.60;39.80;;;;;;;20.73;32.81;95060.06;5921109;29;109487;-65
2023/04/29 01:42:39;;;;;;;43.07;39.17;;;;;;;20.74;32.88;95059.75;5918953;29;108981;-65
2023/04/29 01:45:43;;;;;;;44.33;40.43;;;;;;;20.72;32.67;95059.25;5940566;29;108986;-65
2023/04/29 01:48:46;;;;;;;43.83;40.00;;;;;;;20.72;32.87;95055.81;5923868;29;110879;-66
2023/04/29 01:51:49;;;;;;;42.70;39.00;;;;;;;20.71;32.90;95055.03;5913225;29;110482;-65
2023/04/29 01:54:54;;;;;;;43.00;39.30;;;;;;;20.71;33.02;95059.56;5920679;29;109151;-66
2023/04/29 01:57:57;;;;;;;43.77;39.90;;;;;;;20.71;32.75;95056.91;5923311;29;109307;-66
2023/04/29 02:01:00;;;;;;;44.10;40.10;;;;;;;20.70;32.77;95050.78;5911212;29;109014;-65
2023/04/29 02:04:04;;;;;;;43.93;40.03;;;;;;;20.70;33.09;95048.13;5931066;29;108994;-65
2023/04/29 02:07:07;;;;;;;45.20;41.30;;;;;;;20.69;32.83;95056.41;5932075;29;110199;-65
2023/04/29 02:10:12;;;;;;;43.97;40.10;;;;;;;20.69;32.89;95062.53;5909485;29;109051;-66
2023/04/29 02:13:15;;;;;;;44.97;40.90;;;;;;;20.69;32.85;95057.19;5897433;29;109169;-64
2023/04/29 02:16:18;;;;;;;43.50;39.70;;;;;;;20.68;32.52;95057.50;5910795;29;109145;-67
2023/04/29 02:19:21;;;;;;;42.33;38.70;;;;;;;20.70;32.91;95058.00;5909972;29;108966;-66
2023/04/29 02:22:25;;;;;;;41.97;38.27;;;;;;;20.70;32.93;95058.00;5913593;29;109431;-66
2023/04/29 02:25:29;;;;;;;41.37;37.83;;;;;;;20.71;32.95;95056.91;5903831;29;108959;-65
2023/04/29 02:28:32;;;;;;;38.17;34.77;;;;;;;20.72;32.77;95069.91;5914132;29;108932;-64
2023/04/29 02:31:36;;;;;;;40.37;36.80;;;;;;;20.72;32.87;95061.13;5914798;29;109071;-59
2023/04/29 02:34:39;;;;;;;40.17;36.77;;;;;;;20.72;32.99;95061.91;5922753;29;108879;-59
2023/04/29 02:37:42;;;;;;;39.30;35.87;;;;;;;20.72;33.18;95051.28;5938807;29;108962;-59
2023/04/29 02:40:47;;;;;;;37.00;33.77;;;;;;;20.74;33.25;95058.97;5932992;29;109136;-59
2023/04/29 02:43:50;;;;;;;39.40;36.00;;;;;;;20.71;32.91;95055.03;5945535;29;109019;-59
2023/04/29 02:46:53;;;;;;;38.60;35.20;;;;;;;20.72;33.05;95056.59;5936919;29;109229;-59
2023/04/29 02:49:56;;;;;;;37.50;34.20;;;;;;;20.72;33.13;95056.59;5936488;29;108881;-59
2023/04/29 02:52:59;;;;;;;37.60;34.27;;;;;;;20.71;33.14;95062.22;5924604;29;108856;-59
2023/04/29 02:56:05;;;;;;;37.97;34.57;;;;;;;20.71;33.01;95070.19;5934329;29;109036;-60
2023/04/29 02:59:08;;;;;;;37.13;33.83;;;;;;;20.69;33.11;95067.84;5931886;29;108993;-59
2023/04/29 03:02:11;;;;;;;38.10;34.73;;;;;;;20.70;33.19;95073.94;5925027;29;109213;-60
2023/04/29 03:05:15;;;;;;;36.23;33.07;;;;;;;20.68;32.90;95087.53;5912711;29;108905;-59
2023/04/29 03:08:18;;;;;;;35.77;32.53;;;;;;;20.66;33.05;95094.22;5917240;29;108996;-60
2023/04/29 03:11:23;;;;;;;34.60;31.60;;;;;;;20.62;33.15;95094.00;5920327;29;108912;-60
2023/04/29 03:14:26;;;;;;;35.07;31.60;;;;;;;20.59;32.93;95092.72;5935629;29;108935;-60
2023/04/29 03:17:30;;;;;;;33.97;30.77;;;;;;;20.60;32.95;95080.22;5938867;29;108883;-59
2023/04/29 03:20:33;;;;;;;32.07;29.17;;;;;;;20.58;33.07;95085.84;5913790;29;109939;-60
2023/04/29 03:23:38;;;;;;;31.27;28.53;;;;;;;20.57;33.26;95080.81;5925947;29;108935;-60
2023/04/29 03:26:43;;;;;;;30.63;28.03;;;;;;;20.56;33.05;95089.88;5945656;29;108877;-60
2023/04/29 03:29:46;;;;;;;29.63;26.93;;;;;;;20.55;33.12;95089.09;5924093;29;108969;-60
2023/04/29 03:32:49;;;;;;;29.87;27.27;;;;;;;20.55;33.13;95090.97;5918248;29;109782;-60
2023/04/29 03:35:52;;;;;;;29.70;27.10;;;;;;;20.56;33.10;95100.50;5926729;29;108969;-60
2023/04/29 03:38:55;;;;;;;28.53;26.03;;;;;;;20.57;33.03;95108.19;5925118;29;108961;-60
2023/04/29 03:42:00;;;;;;;27.90;25.60;;;;;;;20.52;32.89;95110.97;5924493;29;109005;-58
2023/04/29 03:45:03;;;;;;;26.50;24.07;;;;;;;20.54;33.08;95119.41;5927563;29;108933;-58
2023/04/29 03:48:07;;;;;;;26.80;24.50;;;;;;;20.55;33.06;95130.84;5938853;29;109252;-59
2023/04/29 03:51:10;;;;;;;25.93;23.63;;;;;;;20.55;32.91;95123.66;5922295;29;109023;-59
2023/04/29 03:54:13;;;;;;;24.87;22.67;;;;;;;20.56;33.01;95116.47;5919262;29;109072;-58
2023/04/29 03:57:18;;;;;;;24.70;22.60;;;;;;;20.55;32.82;95106.91;5905624;29;112289;-60
2023/04/29 04:00:21;;;;;;;25.43;23.30;;;;;;;20.54;32.84;95118.63;5928498;29;108961;-58
2023/04/29 04:03:26;;;;;;;24.70;22.50;;;;;;;20.55;33.07;95106.91;5912568;29;108957;-58
2023/04/29 04:06:30;;;;;;;23.23;21.23;;;;;;;20.54;33.07;95105.34;5920283;29;108864;-58
2023/04/29 04:09:33;;;;;;;21.73;19.93;;;;;;;20.50;32.87;95096.34;5924893;29;108943;-58
2023/04/29 04:12:37;;;;;;;22.63;20.63;;;;;;;20.50;33.11;95102.50;5929784;29;108854;-59
2023/04/29 04:15:41;;;;;;;21.40;19.60;;;;;;;20.52;33.17;95107.50;5926464;29;108862;-58
2023/04/29 04:18:44;;;;;;;21.27;19.43;;;;;;;20.47;32.91;95116.34;5928210;29;108915;-63
2023/04/29 04:21:47;;;;;;;15.20;13.67;;;;;;;20.51;32.48;95121.88;5926759;29;108980;-62
2023/04/29 04:24:50;;;;;;;13.73;12.43;;;;;;;20.47;31.95;95118.22;5918756;29;108928;-62
2023/04/29 04:27:55;;;;;;;22.57;20.53;;;;;;;20.47;31.92;95120.88;5921337;29;108862;-66
2023/04/29 04:30:58;;;;;;;41.20;37.73;;;;;;;20.44;31.94;95118.81;5924063;29;109222;-62
2023/04/29 04:34:01;;;;;;;62.03;56.53;;;;;;;20.38;31.48;95110.13;5937410;29;108985;-62
2023/04/29 04:37:05;;;;;;;53.40;48.93;;;;;;;20.37;31.59;95107.78;5921330;29;108864;-62
2023/04/29 04:40:10;;;;;;;46.93;42.97;;;;;;;20.39;31.51;95105.63;5910338;29;109073;-63
2023/04/29 04:43:16;;;;;;;42.87;38.90;;;;;;;20.40;31.09;95107.97;5927364;29;108923;-63
2023/04/29 04:46:19;;;;;;;53.73;49.03;;;;;;;20.35;31.59;95107.28;5943588;29;109000;-62
2023/04/29 04:49:23;;;;;;;44.93;41.33;;;;;;;20.37;31.50;95108.56;5926968;29;109137;-62
2023/04/29 04:52:26;;;;;;;41.80;38.37;;;;;;;20.36;31.41;95112.31;5914415;29;108937;-62
2023/04/29 04:55:30;;;;;;;41.40;37.90;;;;;;;20.38;31.37;95118.13;5935331;29;108947;-62
2023/04/29 04:58:35;;;;;;;37.30;34.10;;;;;;;20.29;32.34;95120.63;5930084;29;108968;-63
2023/04/29 05:01:38;;;;;;;26.13;23.50;;;;;;;20.19;31.48;95117.34;5928997;29;109020;-62
2023/04/29 05:04:41;;;;;;;22.13;19.83;;;;;;;20.05;31.24;95111.22;5919082;29;109269;-63
2023/04/29 05:07:44;;;;;;;14.90;13.40;;;;;;;20.01;30.81;95111.78;5941631;29;108937;-63
2023/04/29 05:10:47;;;;;;;17.73;15.20;;;;;;;20.01;31.25;95111.78;5921362;29;108997;-62
2023/04/29 05:13:52;;;;;;;34.90;31.40;;;;;;;20.00;31.48;95107.56;5914670;29;109659;-62
2023/04/29 05:16:58;;;;;;;19.50;17.67;;;;;;;19.87;31.07;95107.50;5929410;29;109015;-63
2023/04/29 05:20:02;;;;;;;11.23;10.10;;;;;;;19.27;31.46;95088.69;5925140;29;108995;-63
2023/04/29 05:23:05;;;;;;;11.83;10.60;;;;;;;19.34;31.87;95081.97;5918197;29;108983;-65
2023/04/29 05:26:08;;;;;;;11.13;8.60;;;;;;;19.65;31.27;95081.53;5929523;29;109651;-63
2023/04/29 05:29:13;;;;;;;12.10;7.33;;;;;;;18.61;31.50;95076.25;5918517;29;109070;-62
2023/04/29 05:32:16;;;;;;;8.47;6.30;;;;;;;17.94;32.91;95076.06;5918886;29;108874;-63
2023/04/29 05:35:19;;;;;;;11.93;8.00;;;;;;;18.58;32.41;95067.00;5915048;29;108900;-63
2023/04/29 05:38:27;;;;;;;10.23;7.47;;;;;;;19.24;31.71;95071.50;5898048;29;108985;-65
2023/04/29 05:41:30;;;;;;;11.70;7.90;;;;;;;19.59;31.82;95069.44;5937039;29;110669;-64
2023/04/29 05:44:35;;;;;;;9.87;8.17;;;;;;;19.84;31.26;95078.88;5928064;29;108891;-64
2023/04/29 05:47:38;;;;;;;11.53;8.07;;;;;;;19.99;31.29;95071.44;5925499;29;108887;-64
2023/04/29 05:50:41;;;;;;;10.60;7.90;;;;;;;20.17;32.82;95069.81;5923124;29;109429;-63
2023/04/29 05:53:44;;;;;;;12.80;9.20;;;;;;;20.30;33.41;95066.41;5926382;29;109088;-64
2023/04/29 05:56:47;;;;;;;10.50;8.07;;;;;;;20.40;33.46;95064.66;5944728;29;108863;-63
2023/04/29 05:59:53;;;;;;;10.20;8.00;;;;;;;20.51;33.60;95079.34;5915246;29;108904;-63
2023/04/29 06:02:57;;;;;;;12.03;8.70;;;;;;;20.67;33.64;95077.16;5921111;29;108933;-62
2023/04/29 06:06:01;;;;;;;9.77;7.40;;;;;;;20.74;33.59;95078.38;5928354;29;109216;-61
2023/04/29 06:09:05;;;;;;;10.13;7.90;;;;;;;20.86;33.95;95073.34;5929275;29;108936;-62
2023/04/29 06:12:21;;;;;;;12.43;8.30;;;;;;;20.94;34.10;95085.16;5917690;29;108938;-62
2023/04/29 06:15:26;;;;;;;16.40;11.47;;;;;;;20.96;32.91;95077.66;5918222;29;109001;-63
2023/04/29 06:18:29;;;;;;;11.63;9.50;;;;;;;20.13;32.22;95074.13;5918899;29;108916;-62
2023/04/29 06:21:32;;;;;;;14.40;10.47;;;;;;;20.51;33.44;95066.84;5916688;29;108960;-63
2023/04/29 06:24:35;;;;;;;11.73;10.40;;;;;;;20.78;33.29;95073.25;5919584;29;109985;-62
2023/04/29 06:27:38;;;;;;;10.50;9.50;;;;;;;20.95;33.27;95064.66;5924817;29;108954;-63
2023/04/29 06:30:44;;;;;;;9.90;8.90;;;;;;;21.06;34.13;95077.50;5917863;29;109016;-63
2023/04/29 06:33:47;;;;;;;11.93;10.50;;;;;;;21.15;34.59;95080.22;5915165;29;109953;-62
2023/04/29 06:36:50;;;;;;;11.00;9.90;;;;;;;21.24;34.18;95078.44;5939614;29;108986;-63
2023/04/29 06:39:53;;;;;;;11.47;9.00;;;;;;;21.21;33.91;95074.50;5923690;29;108916;-61
2023/04/29 06:42:57;;;;;;;11.00;9.43;;;;;;;21.24;33.82;95082.97;5924578;29;109109;-63
2023/04/29 06:46:01;;;;;;;11.60;9.60;;;;;;;21.33;33.65;95084.63;5915375;29;112070;-62
2023/04/29 06:49:05;;;;;;;10.30;9.27;;;;;;;21.43;33.39;95078.28;5915583;29;108951;-62
2023/04/29 06:52:08;;;;;;;11.27;9.97;;;;;;;21.44;33.81;95072.66;5923030;29;108937;-62
2023/04/29 06:55:11;;;;;;;10.50;9.50;;;;;;;21.54;33.76;95073.53;5938315;29;108893;-61
2023/04/29 06:58:15;;;;;;;12.40;9.10;;;;;;;21.58;33.56;95069.97;5933603;29;108940;-62
2023/04/29 07:01:20;;;;;;;9.47;8.57;;;;;;;21.64;33.03;95067.97;5923761;29;108968;-62
2023/04/29 07:04:23;;;;;;;10.93;8.60;;;;;;;21.59;33.59;95070.75;5926733;29;109154;-61
2023/04/29 07:07:26;;;;;;;14.50;8.47;;;;;;;21.45;33.24;95060.94;5915282;29;109112;-60
2023/04/29 07:10:29;;;;;;;8.50;7.50;;;;;;;21.25;32.15;95069.38;5920294;29;109073;-59
2023/04/29 07:13:32;;;;;;;10.53;7.50;;;;;;;21.06;31.64;95063.41;5926329;29;109189;-63
2023/04/29 07:16:37;;;;;;;8.90;7.30;;;;;;;21.24;32.55;95061.69;5928428;29;109033;-63
2023/04/29 07:19:40;;;;;;;7.03;6.33;;;;;;;21.40;32.46;95061.06;5925467;29;109348;-63
2023/04/29 07:22:43;;;;;;;8.73;7.87;;;;;;;21.39;32.40;95042.72;5924142;29;108967;-62
2023/04/29 07:25:46;;;;;;;10.27;7.10;;;;;;;21.37;32.75;95035.03;5924255;29;108959;-63
2023/04/29 07:28:49;;;;;;;7.23;6.53;;;;;;;21.23;32.10;95060.13;5943663;29;109323;-68
2023/04/29 07:31:54;;;;;;;7.30;6.50;;;;;;;21.43;32.04;95051.69;5918765;29;109985;-62
2023/04/29 07:34:57;;;;;;;8.67;7.30;;;;;;;21.60;33.31;95054.47;5904048;29;108897;-67
2023/04/29 07:38:00;;;;;;;11.53;7.50;;;;;;;21.68;34.15;95055.66;5923052;29;108992;-64
2023/04/29 07:41:04;;;;;;;13.57;7.40;;;;;;;21.82;34.79;95053.72;5927954;29;108987;-61
2023/04/29 07:44:07;;;;;;;13.47;7.73;;;;;;;21.95;36.02;95054.75;5914359;29;108854;-63
2023/04/29 07:47:12;;;;;;;17.57;8.13;;;;;;;22.04;36.57;95053.72;5922171;29;108877;-63
2023/04/29 07:50:16;;;;;;;16.80;8.27;;;;;;;22.12;36.86;95057.50;5932523;29;108927;-63
2023/04/29 07:53:19;;;;;;;15.50;8.97;;;;;;;22.16;37.42;95050.47;5913047;29;110146;-63
2023/04/29 07:56:22;;;;;;;27.83;21.30;;;;;;;22.00;37.15;95046.63;5920041;29;108989;-62
2023/04/29 07:59:25;;;;;;;78.77;67.53;;;;;;;22.02;35.73;95042.56;5909855;29;108905;-63
2023/04/29 08:02:29;;;;;;;97.30;80.70;;;;;;;22.06;36.11;95034.75;5919770;29;109219;-64
2023/04/29 08:05:33;;;;;;;82.53;68.90;;;;;;;22.09;35.47;95037.59;5910338;29;109070;-65
2023/04/29 08:08:36;;;;;;;74.20;63.77;;;;;;;22.15;35.61;95034.78;5915216;29;108904;-61
2023/04/29 08:11:39;;;;;;;69.70;59.50;;;;;;;22.15;35.92;95029.47;5931114;29;108900;-65
2023/04/29 08:14:42;;;;;;;65.03;56.37;;;;;;;22.23;36.04;95042.84;5915343;29;108933;-63
2023/04/29 08:17:47;;;;;;;66.67;57.00;;;;;;;22.29;35.97;95038.16;5920110;29;108935;-63
2023/04/29 08:20:50;;;;;;;60.27;53.60;;;;;;;22.36;36.25;95033.19;5943246;29;108913;-64
2023/04/29 08:23:54;;;;;;;54.30;47.13;;;;;;;22.39;36.10;95021.91;5938789;29;109017;-61
2023/04/29 08:26:57;;;;;;;49.80;44.40;;;;;;;22.43;36.44;95022.84;5929779;29;109025;-61
2023/04/29 08:30:00;;;;;;;47.67;41.63;;;;;;;22.46;36.17;95016.13;5917037;29;110045;-60
2023/04/29 08:33:05;;;;;;;46.07;40.13;;;;;;;22.47;36.29;95023.00;5932458;29;109058;-61
2023/04/29 08:36:08;;;;;;;41.77;34.30;;;;;;;22.50;36.19;95022.41;5918972;29;109032;-61
2023/04/29 08:39:11;;;;;;;38.67;33.60;;;;;;;22.54;36.26;95018.03;5903311;29;108998;-62
2023/04/29 08:42:14;;;;;;;37.87;31.27;;;;;;;22.56;35.73;95023.84;5935314;29;108953;-61
2023/04/29 08:45:23;;;;;;;36.87;30.00;;;;;;;22.55;35.64;95020.41;5917354;29;108918;-61
2023/04/29 08:48:28;;;;;;;34.20;29.00;;;;;;;22.54;35.76;95020.69;5937237;29;108987;-61
2023/04/29 08:51:33;;;;;;;31.03;27.40;;;;;;;22.54;36.00;95018.03;5917995;29;109609;-61
2023/04/29 08:54:36;;;;;;;30.53;27.10;;;;;;;22.49;36.14;95005.59;5938307;29;109022;-63
2023/04/29 08:57:41;;;;;;;36.33;25.07;;;;;;;22.49;36.43;95010.94;5931518;29;109099;-62
2023/04/29 09:00:45;;;;;;;32.37;24.43;;;;;;;22.52;36.49;94996.22;5934656;29;109757;-63
2023/04/29 09:04:01;;;;;;;26.10;23.20;;;;;;;22.56;36.55;94989.97;5935739;29;109351;-72
2023/04/29 09:07:06;;;;;;;23.63;19.50;;;;;;;22.40;34.59;94981.59;5918266;29;108920;-60
2023/04/29 09:10:10;;;;;;;19.23;17.30;;;;;;;22.20;34.50;94984.03;5937365;29;108889;-66
2023/04/29 09:13:24;;;;;;;26.77;18.87;;;;;;;22.15;34.41;94976.16;5917232;29;109783;-61
2023/04/29 09:16:28;;;;;;;18.90;16.90;;;;;;;22.15;34.24;94974.28;5926501;29;108907;-61
2023/04/29 09:19:34;;;;;;;18.40;16.53;;;;;;;22.16;33.93;94977.72;5925695;29;109286;-62
2023/04/29 09:22:48;;;;;;;19.10;16.60;;;;;;;22.19;34.23;94969.13;5928370;29;108988;-60
2023/04/29 09:25:56;;;;;;;17.43;15.43;;;;;;;22.16;33.54;94965.19;5915019;29;109071;-61
2023/04/29 09:29:10;;;;;;;22.03;14.50;;;;;;;22.09;33.99;94962.97;5916093;29;108902;-61
2023/04/29 09:32:20;;;;;;;19.30;15.47;;;;;;;22.15;33.65;94962.81;5927247;29;109056;-60
2023/04/29 09:35:26;;;;;;;16.80;14.90;;;;;;;22.17;33.67;94960.63;5916410;29;108946;-60
2023/04/29 09:38:29;;;;;;;18.20;13.40;;;;;;;22.15;33.87;94952.94;5925467;29;108935;-59
2023/04/29 09:41:32;;;;;;;16.10;14.50;;;;;;;22.09;33.46;94944.31;5915461;29;109007;-61
2023/04/29 09:44:36;;;;;;;16.43;14.83;;;;;;;22.09;33.52;94933.66;5913357;29;108974;-59
2023/04/29 09:47:39;;;;;;;16.73;14.53;;;;;;;22.15;33.48;94952.94;5910772;29;108931;-59
2023/04/29 09:50:45;;;;;;;17.50;15.70;;;;;;;22.11;33.34;94939.47;5938196;29;109016;-59
2023/04/29 09:53:49;;;;;;;15.90;14.20;;;;;;;22.04;33.93;94938.34;5932155;29;108934;-60
2023/04/29 09:56:53;;;;;;;15.37;13.40;;;;;;;22.07;33.44;94948.38;5937998;29;109088;-59
2023/04/29 09:59:56;;;;;;;14.77;13.27;;;;;;;22.05;33.12;94931.94;5915371;29;109013;-59
2023/04/29 10:03:01;;;;;;;14.47;12.97;;;;;;;22.05;32.98;94929.25;5923673;29;108872;-59
2023/04/29 10:06:07;;;;;;;14.37;13.03;;;;;;;22.03;33.18;94924.25;5925922;29;109006;-59
2023/04/29 10:09:14;;;;;;;14.37;13.07;;;;;;;22.01;32.64;94915.78;5918595;29;109046;-63
2023/04/29 10:12:19;;;;;;;13.40;12.27;;;;;;;21.97;32.68;94919.34;5934181;29;108924;-62
2023/04/29 10:15:27;;;;;;;13.67;12.47;;;;;;;21.91;32.73;94918.69;5925095;29;108906;-59
2023/04/29 10:18:36;;;;;;;25.73;23.20;;;;;;;21.87;32.39;94914.28;5927221;29;109235;-59
2023/04/29 10:21:41;;;;;;;17.60;16.00;;;;;;;21.83;32.39;94903.44;5910483;29;109377;-60
2023/04/29 10:24:45;;;;;;;20.13;18.13;;;;;;;21.80;32.09;94901.38;5915067;29;109103;-60
2023/04/29 10:27:51;;;;;;;19.03;17.07;;;;;;;21.80;32.10;94904.03;5909752;29;108928;-60
2023/04/29 10:30:56;;;;;;;18.83;17.13;;;;;;;21.79;32.29;94905.13;5924679;29;108971;-60
2023/04/29 10:34:00;;;;;;;16.63;14.93;;;;;;;21.73;32.34;94890.38;5914827;29;108853;-59
2023/04/29 10:37:05;;;;;;;15.67;14.27;;;;;;;21.77;32.28;94896.66;5924232;29;109000;-60
2023/04/29 10:40:16;;;;;;;15.37;13.77;;;;;;;21.77;32.44;94899.31;5920034;29;108924;-60
2023/04/29 10:43:23;;;;;;;13.53;12.33;;;;;;;21.76;31.88;94890.56;5920062;29;108931;-60
2023/04/29 10:46:27;;;;;;;12.77;11.53;;;;;;;21.56;32.24;94864.47;5922080;29;108955;-60
2023/04/29 10:49:34;;;;;;;11.57;10.43;;;;;;;21.74;31.84;94894.63;5924794;29;109178;-60
2023/04/29 10:52:55;;;;;;;11.17;10.17;;;;;;;21.74;32.10;94895.41;5924992;29;108844;-60
2023/04/29 10:56:03;;;;;;;11.10;8.93;;;;;;;21.70;31.75;94883.00;5892569;29;109483;-60
2023/04/29 10:59:09;;;;;;;9.17;8.20;;;;;;;21.70;32.13;94888.34;5924829;29;108999;-60
2023/04/29 11:02:14;;;;;;;8.87;7.60;;;;;;;21.69;31.38;94887.56;5924066;29;109052;-60
2023/04/29 11:05:30;;;;;;;11.80;7.23;;;;;;;21.58;31.68;94870.25;5924942;29;108864;-60
2023/04/29 11:08:38;;;;;;;8.30;6.73;;;;;;;21.64;31.37;94868.25;5925237;29;109367;-62
2023/04/29 11:11:43;;;;;;;6.97;6.27;;;;;;;21.65;30.98;94878.59;5929695;29;108873;-60
2023/04/29 11:14:50;;;;;;;6.53;6.03;;;;;;;21.66;30.62;94884.69;5926666;29;109005;-60
2023/04/29 11:17:59;;;;;;;6.33;5.77;;;;;;;21.62;30.74;94881.88;5913875;29;109000;-60
2023/04/29 11:21:14;;;;;;;5.33;4.83;;;;;;;21.73;30.81;94875.19;5923573;29;109334;-57
2023/04/29 11:24:19;;;;;;;5.73;5.13;;;;;;;21.77;30.94;94878.81;5914168;29;108936;-59
2023/04/29 11:27:25;;;;;;;12.13;5.53;;;;;;;21.79;31.07;94878.50;5923459;29;108962;-59
2023/04/29 11:30:30;;;;;;;5.30;4.40;;;;;;;21.76;29.78;94877.22;5915637;29;108867;-60
2023/04/29 11:33:33;;;;;;;5.20;3.93;;;;;;;21.51;28.52;94860.06;5922906;29;108894;-61
2023/04/29 11:36:36;;;;;;;5.63;4.00;;;;;;;21.58;29.36;94864.94;5926575;29;109272;-60
2023/04/29 11:39:41;;;;;;;4.43;4.00;;;;;;;21.54;28.28;94871.97;5915959;29;108928;-59
2023/04/29 11:42:45;;;;;;;5.67;3.90;;;;;;;21.67;28.34;94865.75;5912662;29;109016;-57
2023/04/29 11:45:49;;;;;;;4.40;3.80;;;;;;;21.70;28.91;94864.38;5913439;29;108977;-57
2023/04/29 11:48:52;;;;;;;4.10;3.67;;;;;;;21.65;29.08;94849.28;5923051;29;108959;-57
2023/04/29 11:51:55;;;;;;;4.57;3.70;;;;;;;21.72;29.11;94864.84;5922520;29;109757;-60
2023/04/29 11:55:00;;;;;;;3.60;3.30;;;;;;;21.74;29.63;94870.66;5925598;29;108891;-60
2023/04/29 11:58:04;;;;;;;4.87;3.70;;;;;;;21.74;30.14;94867.97;5929232;29;109058;-63
2023/04/29 12:01:08;;;;;;;4.50;3.77;;;;;;;21.73;29.77;94863.75;5934365;29;108926;-64
2023/04/29 12:04:11;;;;;;;3.70;3.40;;;;;;;21.72;29.80;94854.19;5936178;29;109832;-61
2023/04/29 12:07:18;;;;;;;5.03;3.60;;;;;;;21.74;30.13;94852.00;5946325;29;108883;-60
2023/04/29 12:10:22;;;;;;;8.40;3.70;;;;;;;21.78;30.74;94866.28;5931236;29;108943;-60
2023/04/29 12:13:27;;;;;;;5.63;3.93;;;;;;;21.74;30.78;94858.13;5923915;29;108992;-60
2023/04/29 12:16:31;;;;;;;7.73;3.67;;;;;;;21.76;30.88;94858.59;5914506;29;109655;-60
2023/04/29 12:19:36;;;;;;;4.50;3.60;;;;;;;21.64;31.29;94836.28;5923850;29;108954;-61
2023/04/29 12:22:39;;;;;;;4.90;3.87;;;;;;;21.78;31.35;94864.41;5921310;29;108991;-59
2023/04/29 12:25:48;;;;;;;4.23;3.83;;;;;;;21.78;31.60;94858.28;5901312;29;109261;-59
2023/04/29 12:28:55;;;;;;;3.50;3.20;;;;;;;21.74;32.28;94852.00;5900564;29;108763;-60
2023/04/29 12:31:58;;;;;;;7.10;4.10;;;;;;;21.77;32.26;94856.72;5900904;29;108819;-60
2023/04/29 12:35:01;;;;;;;3.50;3.30;;;;;;;21.75;32.67;94841.03;5918566;29;108910;-60
2023/04/29 12:38:04;;;;;;;3.80;3.40;;;;;;;21.76;32.45;94844.50;5912739;29;112047;-61
2023/04/29 12:41:09;;;;;;;3.67;3.37;;;;;;;21.79;32.44;94849.19;5923261;29;108953;-61
2023/04/29 12:44:12;;;;;;;3.80;3.20;;;;;;;21.78;33.01;94848.41;5919184;29;109030;-61
2023/04/29 12:47:16;;;;;;;3.43;3.13;;;;;;;21.63;33.05;94822.19;5901193;29;108909;-61
2023/04/29 12:50:19;;;;;;;4.00;3.70;;;;;;;21.76;33.20;94842.59;5901506;29;111187;-61
2023/04/29 12:53:23;;;;;;;3.83;3.53;;;;;;;21.74;33.70;94836.81;5926992;29;109091;-61
2023/04/29 12:56:27;;;;;;;3.37;3.07;;;;;;;21.81;33.42;94839.00;5919321;29;109063;-60
2023/04/29 12:59:30;;;;;;;4.10;3.50;;;;;;;21.81;33.71;94836.34;5907114;29;109008;-61
2023/04/29 13:02:33;;;;;;;5.13;3.33;;;;;;;21.77;33.59;94832.75;5944104;29;109292;-61
2023/04/29 13:05:39;;;;;;;3.57;3.27;;;;;;;21.77;33.63;94827.41;5918926;29;109031;-57
2023/04/29 13:08:42;;;;;;;3.70;3.40;;;;;;;21.79;33.78;94834.00;5927507;29;109316;-58
2023/04/29 13:11:47;;;;;;;3.87;3.47;;;;;;;21.79;33.83;94833.22;5916419;29;109070;-57
2023/04/29 13:14:50;;;;;;;3.93;3.00;;;;;;;21.79;34.35;94827.88;5926893;29;108951;-57
2023/04/29 13:17:54;;;;;;;3.03;2.73;;;;;;;21.79;34.45;94830.56;5926808;29;108946;-61
2023/04/29 13:20:57;;;;;;;4.63;3.47;;;;;;;21.80;34.79;94824.13;5926717;29;109074;-57
2023/04/29 13:24:00;;;;;;;3.10;2.80;;;;;;;21.82;34.99;94824.63;5910844;29;110207;-57
2023/04/29 13:27:05;;;;;;;3.40;2.80;;;;;;;21.73;34.92;94807.81;5921178;29;109051;-57
2023/04/29 13:30:09;;;;;;;3.33;3.03;;;;;;;21.80;34.86;94830.25;5904407;29;108905;-57
2023/04/29 13:33:13;;;;;;;4.83;2.83;;;;;;;21.76;35.03;94813.31;5901415;29;108970;-59
2023/04/29 13:36:16;;;;;;;2.90;2.70;;;;;;;21.83;34.99;94812.88;5914471;29;109226;-58
2023/04/29 13:39:22;;;;;;;3.00;2.80;;;;;;;21.85;35.22;94817.94;5926352;29;109027;-57
2023/04/29 13:42:26;;;;;;;2.90;2.47;;;;;;;21.86;34.95;94832.81;5926285;29;108877;-59
2023/04/29 13:45:30;;;;;;;3.80;2.87;;;;;;;21.86;35.23;94828.28;5919615;29;108892;-58
2023/04/29 13:48:34;;;;;;;3.33;2.77;;;;;;;21.87;35.31;94826.38;5926133;29;110341;-57
2023/04/29 13:51:57;;;;;;;3.20;2.90;;;;;;;21.90;35.43;94815.91;5909521;29;108993;-58
2023/04/29 13:55:03;;;;;;;4.40;2.83;;;;;;;21.58;35.31;94763.75;5935879;29;108883;-57
2023/04/29 13:58:27;;;;;;;3.90;3.60;;;;;;;21.86;35.40;94822.16;5896149;29;109048;-58
2023/04/29 14:01:33;;;;;;;4.27;3.97;;;;;;;21.81;34.87;94813.16;5905748;29;108562;-63
2023/04/29 14:04:39;;;;;;;3.67;3.40;;;;;;;21.81;34.88;94805.16;5911505;29;109101;-58